createdAt,value
2022-11-06T00:00:49.506Z,91.87
2022-11-06T00:03:17.026Z,92.35
2022-11-06T00:06:01.947Z,94.05
2022-11-06T00:08:30.476Z,93.38
2022-11-06T00:10:59.356Z,93.10
2022-11-06T00:13:26.983Z,90.91
2022-11-06T00:15:54.596Z,93.25
2022-11-06T00:18:22.051Z,93.93
2022-11-06T00:20:49.515Z,96.68
2022-11-06T00:23:16.998Z,95.17
2022-11-06T00:25:44.481Z,94.59
2022-11-06T00:28:13.671Z,94.91
2022-11-06T00:30:41.547Z,95.81
2022-11-06T00:33:10.651Z,93.70
2022-11-06T00:35:38.539Z,96.98
2022-11-06T00:38:06.132Z,95.13
2022-11-06T00:40:33.586Z,96.12
2022-11-06T00:43:01.179Z,93.15
2022-11-06T00:45:29.987Z,91.79
2022-11-06T00:47:57.437Z,96.55
2022-11-06T00:50:26.453Z,95.32
2022-11-06T00:52:54.486Z,96.20
2022-11-06T00:55:22.020Z,98.97
2022-11-06T00:57:49.464Z,97.25
2022-11-06T01:00:18.042Z,96.24
2022-11-06T01:02:46.966Z,95.14
2022-11-06T01:05:14.687Z,99.77
2022-11-06T01:07:42.541Z,95.95
2022-11-06T01:10:10.299Z,93.80
2022-11-06T01:12:37.831Z,96.29
2022-11-06T01:15:05.746Z,92.49
2022-11-06T01:17:33.659Z,93.63
2022-11-06T01:20:02.891Z,94.11
2022-11-06T01:22:30.437Z,94.68
2022-11-06T01:24:58.011Z,94.92
2022-11-06T01:27:26.946Z,95.12
2022-11-06T01:29:55.066Z,95.73
2022-11-06T01:32:22.605Z,96.81
2022-11-06T01:34:50.308Z,99.79
2022-11-06T01:37:19.152Z,95.98
2022-11-06T01:39:47.302Z,97.32
2022-11-06T01:42:14.854Z,96.05
2022-11-06T01:45:07.276Z,97.76
2022-11-06T01:47:34.703Z,94.51
2022-11-06T01:50:04.625Z,94.69
2022-11-06T01:52:33.611Z,90.72
2022-11-06T01:55:03.427Z,91.61
2022-11-06T01:57:30.975Z,91.25
2022-11-06T01:59:58.426Z,93.43
2022-11-06T02:02:25.987Z,92.00
2022-11-06T02:04:53.516Z,94.67
2022-11-06T02:07:21.249Z,95.42
2022-11-06T02:09:50.100Z,97.56
2022-11-06T02:12:20.072Z,98.40
2022-11-06T02:14:52.311Z,99.36
2022-11-06T02:17:21.883Z,100.00
2022-11-06T02:19:53.244Z,95.45
2022-11-06T02:22:25.271Z,94.79
2022-11-06T02:24:59.975Z,95.53
2022-11-06T02:27:28.983Z,93.94
2022-11-06T02:29:57.251Z,94.68
2022-11-06T02:32:25.735Z,93.38
2022-11-06T02:34:53.534Z,93.83
2022-11-06T02:37:22.790Z,93.51
2022-11-06T02:39:50.261Z,91.20
2022-11-06T02:42:17.788Z,93.51
2022-11-06T02:44:46.594Z,91.92
2022-11-06T02:47:14.356Z,90.59
2022-11-06T02:49:42.468Z,91.85
2022-11-06T02:52:11.473Z,94.52
2022-11-06T02:54:39.639Z,93.53
2022-11-06T02:57:08.459Z,92.84
2022-11-06T02:59:38.053Z,91.50
2022-11-06T03:02:07.525Z,90.25
2022-11-06T03:04:36.564Z,92.61
2022-11-06T03:07:05.147Z,95.12
2022-11-06T03:09:33.252Z,93.76
2022-11-06T03:12:02.135Z,91.21
2022-11-06T03:14:31.252Z,90.37
2022-11-06T03:16:59.262Z,91.37
2022-11-06T03:19:29.011Z,91.35
2022-11-06T03:21:58.960Z,90.60
2022-11-06T03:24:31.035Z,89.51
2022-11-06T03:26:59.062Z,90.95
2022-11-06T03:29:27.688Z,90.13
2022-11-06T03:31:55.997Z,93.87
2022-11-06T03:34:26.104Z,94.55
2022-11-06T03:36:56.117Z,93.76
2022-11-06T03:39:24.707Z,93.53
2022-11-06T03:41:52.956Z,93.92
2022-11-06T03:44:21.376Z,91.65
2022-11-06T03:46:49.655Z,92.90
2022-11-06T03:49:18.310Z,91.55
2022-11-06T03:51:46.210Z,92.97
2022-11-06T03:54:16.563Z,89.44
2022-11-06T03:56:44.947Z,92.70
2022-11-06T03:59:12.769Z,91.61
2022-11-06T04:01:42.508Z,88.95
2022-11-06T04:04:11.437Z,85.30
2022-11-06T04:06:40.023Z,88.33
2022-11-06T04:09:24.827Z,87.85
2022-11-06T04:12:10.903Z,90.24
2022-11-06T04:14:38.771Z,85.65
2022-11-06T04:17:07.823Z,88.48
2022-11-06T04:19:35.326Z,91.14
2022-11-06T04:22:10.071Z,92.15
2022-11-06T04:24:59.115Z,89.44
2022-11-06T04:27:30.689Z,89.93
2022-11-06T04:30:05.982Z,89.50
2022-11-06T04:32:39.950Z,88.10
2022-11-06T04:35:08.897Z,88.80
2022-11-06T04:37:37.940Z,89.89
2022-11-06T04:40:06.915Z,87.10
2022-11-06T04:42:37.292Z,88.39
2022-11-06T04:45:06.092Z,89.60
2022-11-06T04:47:33.536Z,86.35
2022-11-06T04:50:01.879Z,87.42
2022-11-06T04:52:29.935Z,87.83
2022-11-06T04:54:57.763Z,89.33
2022-11-06T04:57:25.250Z,87.68
2022-11-06T04:59:54.030Z,87.55
2022-11-06T05:02:21.553Z,87.13
2022-11-06T05:04:49.345Z,89.02
2022-11-06T05:07:17.558Z,88.53
2022-11-06T05:09:45.627Z,84.63
2022-11-06T05:12:13.499Z,87.77
2022-11-06T05:14:40.965Z,87.11
2022-11-06T05:17:10.309Z,88.09
2022-11-06T05:19:37.764Z,87.12
2022-11-06T05:22:22.577Z,87.61
2022-11-06T05:24:50.050Z,84.97
2022-11-06T05:27:17.490Z,85.54
2022-11-06T05:29:44.952Z,91.31
2022-11-06T05:32:13.772Z,86.72
2022-11-06T05:34:42.273Z,85.86
2022-11-06T05:37:09.745Z,87.33
2022-11-06T05:39:41.567Z,88.96
2022-11-06T05:42:09.767Z,89.25
2022-11-06T05:44:37.708Z,87.66
2022-11-06T05:47:05.252Z,88.05
2022-11-06T05:49:34.298Z,88.74
2022-11-06T05:52:01.776Z,85.94
2022-11-06T05:54:29.234Z,84.83
2022-11-06T05:56:56.716Z,86.21
2022-11-06T05:59:24.232Z,85.53
2022-11-06T06:01:51.774Z,86.36
2022-11-06T06:04:19.318Z,85.47
2022-11-06T06:06:48.128Z,85.73
2022-11-06T06:09:15.587Z,85.40
2022-11-06T06:11:43.016Z,87.01
2022-11-06T06:14:10.575Z,85.39
2022-11-06T06:16:38.021Z,87.39
2022-11-06T06:19:05.478Z,86.48
2022-11-06T06:21:32.932Z,87.68
2022-11-06T06:24:01.743Z,86.96
2022-11-06T06:26:29.166Z,87.39
2022-11-06T06:28:56.651Z,86.95
2022-11-06T06:31:24.145Z,87.49
2022-11-06T06:33:51.650Z,87.18
2022-11-06T06:36:19.113Z,84.79
2022-11-06T06:38:46.599Z,85.15
2022-11-06T06:41:15.407Z,90.07
2022-11-06T06:43:42.934Z,87.40
2022-11-06T06:46:10.450Z,84.82
2022-11-06T06:48:37.955Z,86.91
2022-11-06T06:51:07.764Z,84.96
2022-11-06T06:53:35.274Z,87.02
2022-11-06T06:56:02.761Z,86.41
2022-11-06T06:58:31.903Z,87.71
2022-11-06T07:01:00.156Z,88.20
2022-11-06T07:03:27.998Z,87.11
2022-11-06T07:05:55.462Z,88.35
2022-11-06T07:08:23.150Z,88.41
2022-11-06T07:10:50.795Z,86.82
2022-11-06T07:13:18.439Z,87.70
2022-11-06T07:15:47.465Z,85.24
2022-11-06T07:18:15.519Z,84.48
2022-11-06T07:20:43.397Z,86.85
2022-11-06T07:23:11.128Z,87.15
2022-11-06T07:25:38.869Z,84.84
2022-11-06T07:28:08.024Z,85.85
2022-11-06T07:30:36.559Z,84.80
2022-11-06T07:33:06.517Z,85.39
2022-11-06T07:35:34.834Z,82.33
2022-11-06T07:38:04.808Z,81.37
2022-11-06T07:40:32.604Z,84.37
2022-11-06T07:43:04.611Z,83.87
2022-11-06T07:45:32.257Z,84.93
2022-11-06T07:47:59.971Z,82.70
2022-11-06T07:50:29.239Z,83.67
2022-11-06T07:52:57.018Z,82.01
2022-11-06T07:55:24.847Z,81.34
2022-11-06T07:57:52.516Z,82.27
2022-11-06T08:00:20.988Z,82.49
2022-11-06T08:02:52.037Z,82.92
2022-11-06T08:05:19.720Z,80.22
2022-11-06T08:07:48.744Z,80.73
2022-11-06T08:10:16.437Z,81.04
2022-11-06T08:12:44.093Z,80.61
2022-11-06T08:15:12.060Z,81.11
2022-11-06T08:17:39.746Z,80.88
2022-11-06T08:20:09.088Z,79.51
2022-11-06T08:22:36.788Z,78.82
2022-11-06T08:25:06.734Z,79.36
2022-11-06T08:27:34.370Z,77.33
2022-11-06T08:30:02.021Z,81.34
2022-11-06T08:32:29.818Z,81.36
2022-11-06T08:34:57.461Z,83.32
2022-11-06T08:37:25.106Z,79.34
2022-11-06T08:39:52.771Z,78.73
2022-11-06T08:42:21.744Z,77.07
2022-11-06T08:44:49.391Z,77.59
2022-11-06T08:47:17.006Z,76.09
2022-11-06T08:49:44.666Z,77.10
2022-11-06T08:52:12.326Z,76.54
2022-11-06T08:54:39.975Z,75.75
2022-11-06T08:57:07.603Z,74.92
2022-11-06T08:59:36.451Z,74.73
2022-11-06T09:02:04.023Z,76.85
2022-11-06T09:04:31.614Z,76.82
2022-11-06T09:06:59.081Z,73.75
2022-11-06T09:09:31.877Z,76.11
2022-11-06T09:11:59.414Z,76.70
2022-11-06T09:14:26.851Z,75.39
2022-11-06T09:16:55.679Z,76.67
2022-11-06T09:19:23.154Z,76.85
2022-11-06T09:21:54.683Z,76.70
2022-11-06T09:24:43.297Z,78.87
2022-11-06T09:27:10.137Z,77.10
2022-11-06T09:29:40.690Z,76.63
2022-11-06T09:32:09.549Z,77.12
2022-11-06T09:34:37.007Z,77.42
2022-11-06T09:37:04.438Z,75.12
2022-11-06T09:39:31.887Z,74.34
2022-11-06T09:41:59.883Z,75.53
2022-11-06T09:44:30.899Z,74.69
2022-11-06T09:46:58.351Z,75.23
2022-11-06T09:49:27.647Z,76.46
2022-11-06T09:51:56.795Z,77.67
2022-11-06T09:54:24.992Z,76.48
2022-11-06T09:56:55.430Z,74.46
2022-11-06T09:59:22.919Z,75.94
2022-11-06T10:01:51.895Z,74.82
2022-11-06T10:04:22.551Z,73.02
2022-11-06T10:06:51.368Z,72.76
2022-11-06T10:09:18.887Z,71.48
2022-11-06T10:11:50.189Z,69.72
2022-11-06T10:14:21.539Z,70.42
2022-11-06T10:16:50.720Z,70.03
2022-11-06T10:19:29.740Z,71.02
2022-11-06T10:22:00.222Z,70.45
2022-11-06T10:24:30.062Z,69.63
2022-11-06T10:26:57.787Z,69.10
2022-11-06T10:29:42.905Z,70.89
2022-11-06T10:32:15.393Z,71.04
2022-11-06T10:34:43.109Z,69.87
2022-11-06T10:37:12.174Z,75.25
2022-11-06T10:39:39.637Z,72.79
2022-11-06T10:42:07.699Z,75.33
2022-11-06T10:44:37.210Z,73.95
2022-11-06T10:47:05.863Z,73.32
2022-11-06T10:49:36.220Z,72.71
2022-11-06T10:52:17.403Z,71.53
2022-11-06T10:54:48.895Z,72.76
2022-11-06T10:57:20.188Z,71.31
2022-11-06T10:59:48.253Z,74.19
2022-11-06T11:02:22.676Z,72.02
2022-11-06T11:04:53.982Z,72.57
2022-11-06T11:07:25.663Z,70.49
2022-11-06T11:09:53.331Z,71.33
2022-11-06T11:12:22.227Z,71.18
2022-11-06T11:15:04.815Z,72.27
2022-11-06T11:17:32.325Z,71.24
2022-11-06T11:20:02.175Z,70.69
2022-11-06T11:22:33.233Z,71.68
2022-11-06T11:25:02.829Z,69.47
2022-11-06T11:27:30.349Z,69.29
2022-11-06T11:29:57.854Z,70.82
2022-11-06T11:32:25.348Z,69.85
2022-11-06T11:34:56.603Z,68.79
2022-11-06T11:37:25.515Z,71.02
2022-11-06T11:39:54.346Z,70.76
2022-11-06T11:42:23.098Z,70.29
2022-11-06T11:45:04.585Z,70.13
2022-11-06T11:47:32.051Z,69.66
2022-11-06T11:49:59.517Z,68.16
2022-11-06T11:52:26.996Z,68.56
2022-11-06T11:54:55.791Z,67.80
2022-11-06T11:57:23.672Z,69.64
2022-11-06T11:59:52.743Z,67.42
2022-11-06T12:02:26.764Z,66.76
2022-11-06T12:04:55.886Z,66.21
2022-11-06T12:07:24.919Z,63.74
2022-11-06T12:09:52.409Z,64.02
2022-11-06T12:12:23.207Z,64.79
2022-11-06T12:15:04.788Z,65.53
2022-11-06T12:17:33.850Z,65.67
2022-11-06T12:20:01.348Z,66.63
2022-11-06T12:22:29.556Z,66.98
2022-11-06T12:24:58.744Z,66.33
2022-11-06T12:27:28.083Z,64.08
2022-11-06T12:29:58.263Z,63.66
2022-11-06T12:32:27.756Z,63.68
2022-11-06T12:34:56.940Z,68.85
2022-11-06T12:37:25.899Z,67.75
2022-11-06T12:39:53.895Z,64.72
2022-11-06T12:42:21.373Z,66.54
2022-11-06T12:44:50.179Z,64.12
2022-11-06T12:47:26.187Z,66.90
2022-11-06T12:50:01.088Z,64.56
2022-11-06T12:52:30.152Z,63.81
2022-11-06T12:55:02.206Z,62.69
2022-11-06T12:57:31.715Z,63.07
2022-11-06T13:00:11.224Z,64.70
2022-11-06T13:02:46.112Z,63.55
2022-11-06T13:05:15.087Z,63.79
2022-11-06T13:07:52.478Z,66.03
2022-11-06T13:10:21.456Z,65.06
2022-11-06T13:12:51.371Z,64.73
2022-11-06T13:15:22.649Z,64.81
2022-11-06T13:17:50.923Z,64.23
2022-11-06T13:20:20.266Z,64.78
2022-11-06T13:22:49.540Z,64.43
2022-11-06T13:25:18.311Z,66.44
2022-11-06T13:27:47.032Z,64.91
2022-11-06T13:30:16.306Z,65.36
2022-11-06T13:32:51.066Z,63.37
2022-11-06T13:35:21.038Z,62.74
2022-11-06T13:37:48.753Z,63.34
2022-11-06T13:40:21.322Z,64.17
2022-11-06T13:42:49.950Z,62.83
2022-11-06T13:45:17.441Z,64.16
2022-11-06T13:47:50.096Z,64.33
2022-11-06T13:50:19.192Z,65.39
2022-11-06T13:52:47.485Z,65.50
2022-11-06T13:55:16.126Z,65.64
2022-11-06T13:57:58.562Z,66.58
2022-11-06T14:00:26.199Z,66.20
2022-11-06T14:03:05.953Z,66.09
2022-11-06T14:05:53.219Z,65.59
2022-11-06T14:08:22.263Z,63.96
2022-11-06T14:10:51.375Z,64.71
2022-11-06T14:13:18.820Z,65.63
2022-11-06T14:15:47.539Z,65.24
2022-11-06T14:18:23.759Z,67.41
2022-11-06T14:20:51.195Z,63.98
2022-11-06T14:23:37.942Z,64.09
2022-11-06T14:26:06.159Z,63.91
2022-11-06T14:28:34.359Z,64.51
2022-11-06T14:31:23.729Z,65.00
2022-11-06T14:34:00.645Z,65.05
2022-11-06T14:36:29.528Z,65.25
2022-11-06T14:38:57.058Z,65.94
2022-11-06T14:41:49.060Z,65.42
2022-11-06T14:44:22.348Z,64.74
2022-11-06T14:46:50.196Z,64.34
2022-11-06T14:49:20.930Z,65.66
2022-11-06T14:51:54.739Z,64.45
2022-11-06T14:54:22.720Z,64.74
2022-11-06T14:56:52.875Z,65.08
2022-11-06T14:59:21.244Z,64.12
2022-11-06T15:01:54.988Z,65.07
2022-11-06T15:04:23.865Z,66.17
2022-11-06T15:06:51.747Z,66.19
2022-11-06T15:09:34.055Z,64.59
2022-11-06T15:12:01.700Z,63.40
2022-11-06T15:14:47.994Z,64.49
2022-11-06T15:17:15.731Z,65.44
2022-11-06T15:19:44.933Z,64.49
2022-11-06T15:22:15.372Z,63.46
2022-11-06T15:24:44.328Z,65.77
2022-11-06T15:27:13.466Z,64.72
2022-11-06T15:29:42.025Z,65.55
2022-11-06T15:32:11.163Z,65.45
2022-11-06T15:34:39.150Z,65.58
2022-11-06T15:37:09.355Z,64.82
2022-11-06T15:39:39.519Z,65.34
2022-11-06T15:42:08.460Z,66.35
2022-11-06T15:44:38.214Z,64.72
2022-11-06T15:47:05.719Z,65.03
2022-11-06T15:49:33.258Z,65.80
2022-11-06T15:52:01.417Z,67.09
2022-11-06T15:54:36.011Z,66.21
2022-11-06T15:57:04.414Z,65.28
2022-11-06T15:59:32.333Z,66.08
2022-11-06T16:01:59.870Z,67.18
2022-11-06T16:04:27.516Z,69.79
2022-11-06T16:06:55.188Z,70.50
2022-11-06T16:09:23.285Z,71.63
2022-11-06T16:11:52.488Z,74.07
2022-11-06T16:14:20.488Z,74.11
2022-11-06T16:16:48.622Z,77.18
2022-11-06T16:19:26.795Z,81.07
2022-11-06T16:21:56.191Z,80.94
2022-11-06T16:24:23.732Z,84.58
2022-11-06T16:26:52.579Z,84.28
2022-11-06T16:29:21.325Z,84.82
2022-11-06T16:31:49.337Z,83.31
2022-11-06T16:34:21.667Z,84.86
2022-11-06T16:36:50.069Z,83.22
2022-11-06T16:39:48.809Z,86.20
2022-11-06T16:42:31.396Z,83.93
2022-11-06T16:45:02.433Z,82.46
2022-11-06T16:47:30.049Z,86.42
2022-11-06T16:49:57.575Z,86.31
2022-11-06T16:52:28.733Z,87.72
2022-11-06T16:54:57.267Z,87.50
2022-11-06T16:57:25.442Z,87.65
2022-11-06T17:00:05.574Z,89.46
2022-11-06T17:02:33.769Z,88.63
2022-11-06T17:05:11.679Z,90.86
2022-11-06T17:07:39.826Z,89.20
2022-11-06T17:10:26.538Z,89.34
2022-11-06T17:12:54.014Z,87.58
2022-11-06T17:15:22.844Z,89.54
2022-11-06T17:17:50.515Z,89.95
2022-11-06T17:20:18.579Z,90.36
2022-11-06T17:22:46.116Z,91.56
2022-11-06T17:25:13.559Z,93.85
2022-11-06T17:27:41.630Z,95.70
2022-11-06T17:30:12.750Z,94.56
2022-11-06T17:32:41.750Z,95.12
2022-11-06T17:35:09.750Z,96.46
2022-11-06T17:37:37.230Z,98.80
2022-11-06T17:40:05.134Z,99.64
2022-11-06T17:42:32.798Z,100.00
2022-11-06T17:45:00.242Z,100.00
2022-11-06T17:47:27.716Z,100.00
2022-11-06T17:49:56.826Z,100.00
2022-11-06T17:52:24.548Z,100.00
2022-11-06T17:54:52.011Z,100.00
2022-11-06T17:57:23.852Z,100.00
2022-11-06T17:59:51.683Z,100.00
2022-11-06T18:02:40.824Z,100.00
2022-11-06T18:05:08.499Z,100.00
2022-11-06T18:07:35.952Z,100.00
2022-11-06T18:10:03.527Z,100.00
2022-11-06T18:12:31.043Z,100.00
2022-11-06T18:14:58.515Z,100.00
2022-11-06T18:17:25.959Z,100.00
2022-11-06T18:19:53.447Z,100.00
2022-11-06T18:22:22.260Z,100.00
2022-11-06T18:24:49.711Z,100.00
2022-11-06T18:27:17.160Z,100.00
2022-11-06T18:29:44.601Z,100.00
2022-11-06T18:32:12.202Z,99.88
2022-11-06T18:34:40.315Z,100.00
2022-11-06T18:37:07.763Z,100.00
2022-11-06T18:39:36.599Z,100.00
2022-11-06T18:42:04.144Z,100.00
2022-11-06T18:44:32.378Z,98.74
2022-11-06T18:46:59.832Z,98.63
2022-11-06T18:49:27.277Z,98.96
2022-11-06T18:51:54.780Z,97.23
2022-11-06T18:54:22.444Z,98.33
2022-11-06T18:56:51.251Z,94.98
2022-11-06T18:59:20.035Z,93.70
2022-11-06T19:01:47.605Z,96.06
2022-11-06T19:04:15.242Z,98.21
2022-11-06T19:06:42.748Z,97.22
2022-11-06T19:09:10.795Z,97.82
2022-11-06T19:11:38.315Z,97.24
2022-11-06T19:14:07.152Z,95.66
2022-11-06T19:16:34.623Z,94.30
2022-11-06T19:21:31.378Z,92.89
2022-11-06T19:24:03.337Z,92.09
2022-11-06T19:26:32.703Z,93.48
2022-11-06T19:29:00.740Z,91.67
2022-11-06T19:31:30.325Z,92.29
2022-11-06T19:33:58.111Z,93.85
2022-11-06T19:36:26.036Z,92.63
2022-11-06T19:38:53.554Z,90.49
2022-11-06T19:41:21.158Z,89.40
2022-11-06T19:43:48.637Z,89.29
2022-11-06T19:46:23.450Z,88.48
2022-11-06T19:48:53.762Z,89.46
2022-11-06T19:51:21.223Z,88.72
2022-11-06T19:53:52.112Z,89.08
2022-11-06T19:56:19.570Z,90.16
2022-11-06T19:58:47.656Z,89.72
2022-11-06T20:01:15.662Z,89.06
2022-11-06T20:03:43.181Z,86.90
2022-11-06T20:06:12.182Z,88.24
2022-11-06T20:08:39.692Z,87.12
2022-11-06T20:11:07.804Z,86.43
2022-11-06T20:13:36.483Z,86.68
2022-11-06T20:16:04.092Z,87.58
2022-11-06T20:18:31.586Z,87.22
2022-11-06T20:21:00.392Z,86.60
2022-11-06T20:23:29.265Z,84.03
2022-11-06T20:25:56.743Z,87.17
2022-11-06T20:28:24.423Z,88.43
2022-11-06T20:30:51.914Z,87.36
2022-11-06T20:33:19.490Z,88.23
2022-11-06T20:35:47.830Z,87.29
2022-11-06T20:38:15.646Z,84.88
2022-11-06T20:40:44.478Z,86.22
2022-11-06T20:43:12.213Z,87.75
2022-11-06T20:45:39.991Z,89.27
2022-11-06T20:48:08.999Z,91.96
2022-11-06T20:50:36.517Z,94.57
2022-11-06T20:53:04.016Z,92.42
2022-11-06T20:55:31.526Z,91.32
2022-11-06T20:58:00.381Z,90.66
2022-11-06T21:00:28.730Z,90.93
2022-11-06T21:03:01.378Z,93.33
2022-11-06T21:05:29.388Z,96.41
2022-11-06T21:07:56.835Z,96.59
2022-11-06T21:10:24.318Z,96.26
2022-11-06T21:12:51.788Z,94.69
2022-11-06T21:15:20.652Z,99.96
2022-11-06T21:17:48.091Z,95.49
2022-11-06T21:20:20.386Z,100.00
2022-11-06T21:22:50.152Z,97.95
2022-11-06T21:25:17.643Z,97.33
2022-11-06T21:27:45.112Z,97.46
2022-11-06T21:30:12.939Z,100.00
2022-11-06T21:32:41.747Z,97.75
2022-11-06T21:35:09.630Z,96.82
2022-11-06T21:37:37.092Z,98.47
2022-11-06T21:40:05.108Z,95.65
2022-11-06T21:42:32.632Z,96.49
2022-11-06T21:45:00.112Z,95.34
2022-11-06T21:47:27.631Z,99.11
2022-11-06T21:49:56.498Z,95.34
2022-11-06T21:52:41.695Z,98.29
2022-11-06T21:55:28.105Z,95.67
2022-11-06T21:57:55.771Z,94.01
2022-11-06T22:00:23.244Z,97.55
2022-11-06T22:02:51.737Z,99.06
2022-11-06T22:05:20.619Z,98.94
2022-11-06T22:07:48.080Z,97.59
2022-11-06T22:10:15.559Z,96.04
2022-11-06T22:12:42.990Z,96.62
2022-11-06T22:15:10.735Z,98.92
2022-11-06T22:17:38.200Z,98.67
2022-11-06T22:20:06.123Z,100.00
2022-11-06T22:22:34.996Z,100.00
2022-11-06T22:25:02.747Z,100.00
2022-11-06T22:27:30.400Z,99.71
2022-11-06T22:29:58.072Z,100.00
2022-11-06T22:32:25.628Z,98.18
2022-11-06T22:34:53.111Z,97.83
2022-11-06T22:37:20.612Z,99.81
2022-11-06T22:39:50.018Z,97.04
2022-11-06T22:42:17.483Z,97.58
2022-11-06T22:44:45.150Z,100.00
2022-11-06T22:47:12.834Z,98.51
2022-11-06T22:49:40.464Z,97.05
2022-11-06T22:52:07.958Z,97.73
2022-11-06T22:54:35.445Z,97.37
2022-11-06T22:57:04.302Z,100.00
2022-11-06T22:59:31.768Z,99.82
2022-11-06T23:02:00.389Z,97.40
2022-11-06T23:04:27.904Z,97.09
2022-11-06T23:06:55.339Z,98.36
2022-11-06T23:09:22.831Z,98.47
2022-11-06T23:11:50.300Z,100.00
2022-11-06T23:14:19.136Z,99.36
2022-11-06T23:16:58.903Z,100.00
2022-11-06T23:19:26.680Z,99.03
2022-11-06T23:22:14.269Z,96.42
2022-11-06T23:24:41.734Z,100.00
2022-11-06T23:27:09.871Z,100.00
2022-11-06T23:29:38.764Z,100.00
2022-11-06T23:32:06.515Z,99.27
2022-11-06T23:34:34.071Z,100.00
2022-11-06T23:37:01.552Z,100.00
2022-11-06T23:39:28.997Z,98.77
2022-11-06T23:41:56.484Z,99.13
2022-11-06T23:44:41.445Z,100.00
2022-11-06T23:47:10.285Z,96.78
2022-11-06T23:49:37.737Z,99.75
2022-11-06T23:52:05.432Z,98.96
2022-11-06T23:54:32.913Z,98.16
2022-11-06T23:57:00.359Z,95.76
2022-11-06T23:59:27.827Z,98.41
